sensor_id;sensor_type;location;lat;lon;timestamp;P1;durP1;ratioP1;P2;durP2;ratioP2
57217;SDS011;43078;52.972;6.482;2023-07-20T00:01:03;2.25;;;1.05;;
57217;SDS011;43078;52.972;6.482;2023-07-20T00:03:29;3.20;;;0.90;;
57217;SDS011;43078;52.972;6.482;2023-07-20T00:05:54;2.22;;;1.10;;
57217;SDS011;43078;52.972;6.482;2023-07-20T00:08:20;2.72;;;1.00;;
57217;SDS011;43078;52.972;6.482;2023-07-20T00:10:45;3.75;;;0.98;;
57217;SDS011;43078;52.972;6.482;2023-07-20T00:13:11;2.33;;;1.10;;
57217;SDS011;43078;52.972;6.482;2023-07-20T00:15:37;2.85;;;1.00;;
57217;SDS011;43078;52.972;6.482;2023-07-20T00:18:06;2.03;;;1.05;;
57217;SDS011;43078;52.972;6.482;2023-07-20T00:20:31;2.15;;;1.05;;
57217;SDS011;43078;52.972;6.482;2023-07-20T00:22:57;2.78;;;1.10;;
57217;SDS011;43078;52.972;6.482;2023-07-20T00:25:23;1.33;;;0.95;;
57217;SDS011;43078;52.972;6.482;2023-07-20T00:27:50;1.98;;;0.90;;
57217;SDS011;43078;52.972;6.482;2023-07-20T00:30:15;1.90;;;1.08;;
57217;SDS011;43078;52.972;6.482;2023-07-20T00:32:44;2.75;;;1.20;;
57217;SDS011;43078;52.972;6.482;2023-07-20T00:35:13;2.25;;;1.08;;
57217;SDS011;43078;52.972;6.482;2023-07-20T00:37:39;2.30;;;0.98;;
57217;SDS011;43078;52.972;6.482;2023-07-20T00:40:05;2.35;;;1.05;;
57217;SDS011;43078;52.972;6.482;2023-07-20T00:42:33;1.85;;;1.00;;
57217;SDS011;43078;52.972;6.482;2023-07-20T00:44:59;2.42;;;1.00;;
57217;SDS011;43078;52.972;6.482;2023-07-20T00:47:25;2.22;;;1.10;;
57217;SDS011;43078;52.972;6.482;2023-07-20T00:49:53;1.95;;;1.00;;
57217;SDS011;43078;52.972;6.482;2023-07-20T00:52:20;2.85;;;1.13;;
57217;SDS011;43078;52.972;6.482;2023-07-20T00:54:48;3.28;;;1.27;;
57217;SDS011;43078;52.972;6.482;2023-07-20T00:57:15;2.38;;;1.17;;
57217;SDS011;43078;52.972;6.482;2023-07-20T00:59:41;1.75;;;0.98;;
57217;SDS011;43078;52.972;6.482;2023-07-20T01:02:07;2.30;;;1.30;;
57217;SDS011;43078;52.972;6.482;2023-07-20T01:04:33;3.22;;;1.15;;
57217;SDS011;43078;52.972;6.482;2023-07-20T01:07:07;2.80;;;1.20;;
57217;SDS011;43078;52.972;6.482;2023-07-20T01:12:22;2.42;;;1.10;;
57217;SDS011;43078;52.972;6.482;2023-07-20T01:14:52;2.67;;;1.20;;
57217;SDS011;43078;52.972;6.482;2023-07-20T01:17:19;2.10;;;1.17;;
57217;SDS011;43078;52.972;6.482;2023-07-20T01:19:44;2.67;;;1.20;;
57217;SDS011;43078;52.972;6.482;2023-07-20T01:33:14;3.22;;;1.10;;
57217;SDS011;43078;52.972;6.482;2023-07-20T01:35:41;1.77;;;1.23;;
57217;SDS011;43078;52.972;6.482;2023-07-20T01:38:10;3.10;;;1.30;;
57217;SDS011;43078;52.972;6.482;2023-07-20T01:40:37;1.95;;;1.20;;
57217;SDS011;43078;52.972;6.482;2023-07-20T01:43:04;2.63;;;1.48;;
57217;SDS011;43078;52.972;6.482;2023-07-20T01:45:29;3.22;;;1.42;;
57217;SDS011;43078;52.972;6.482;2023-07-20T01:47:55;2.58;;;1.30;;
57217;SDS011;43078;52.972;6.482;2023-07-20T01:50:21;3.08;;;1.50;;
57217;SDS011;43078;52.972;6.482;2023-07-20T01:52:47;2.65;;;1.10;;
57217;SDS011;43078;52.972;6.482;2023-07-20T01:55:13;2.95;;;1.50;;
57217;SDS011;43078;52.972;6.482;2023-07-20T01:57:39;3.50;;;1.40;;
57217;SDS011;43078;52.972;6.482;2023-07-20T02:00:04;3.47;;;1.30;;
57217;SDS011;43078;52.972;6.482;2023-07-20T02:02:37;3.17;;;1.50;;
57217;SDS011;43078;52.972;6.482;2023-07-20T02:05:03;3.08;;;1.50;;
57217;SDS011;43078;52.972;6.482;2023-07-20T02:07:29;3.22;;;1.58;;
57217;SDS011;43078;52.972;6.482;2023-07-20T02:09:54;2.38;;;1.40;;
57217;SDS011;43078;52.972;6.482;2023-07-20T02:12:20;2.47;;;1.38;;
57217;SDS011;43078;52.972;6.482;2023-07-20T02:14:46;2.80;;;1.20;;
57217;SDS011;43078;52.972;6.482;2023-07-20T02:17:12;2.60;;;1.40;;
57217;SDS011;43078;52.972;6.482;2023-07-20T02:19:38;2.70;;;1.40;;
57217;SDS011;43078;52.972;6.482;2023-07-20T02:22:05;2.55;;;1.38;;
57217;SDS011;43078;52.972;6.482;2023-07-20T02:24:32;2.63;;;1.50;;
57217;SDS011;43078;52.972;6.482;2023-07-20T02:26:58;2.58;;;1.40;;
57217;SDS011;43078;52.972;6.482;2023-07-20T02:29:24;2.63;;;1.50;;
57217;SDS011;43078;52.972;6.482;2023-07-20T02:31:49;3.13;;;1.27;;
57217;SDS011;43078;52.972;6.482;2023-07-20T02:34:15;2.30;;;1.50;;
57217;SDS011;43078;52.972;6.482;2023-07-20T02:36:40;1.73;;;1.17;;
57217;SDS011;43078;52.972;6.482;2023-07-20T02:39:07;1.98;;;1.20;;
57217;SDS011;43078;52.972;6.482;2023-07-20T02:41:33;2.15;;;1.40;;
57217;SDS011;43078;52.972;6.482;2023-07-20T02:43:59;2.80;;;1.58;;
57217;SDS011;43078;52.972;6.482;2023-07-20T02:46:26;1.98;;;1.27;;
57217;SDS011;43078;52.972;6.482;2023-07-20T02:48:52;2.53;;;1.30;;
57217;SDS011;43078;52.972;6.482;2023-07-20T02:51:17;2.55;;;1.30;;
57217;SDS011;43078;52.972;6.482;2023-07-20T02:53:43;2.28;;;1.35;;
57217;SDS011;43078;52.972;6.482;2023-07-20T02:56:08;2.80;;;1.20;;
57217;SDS011;43078;52.972;6.482;2023-07-20T02:58:34;2.22;;;1.20;;
57217;SDS011;43078;52.972;6.482;2023-07-20T03:01:03;2.63;;;1.30;;
57217;SDS011;43078;52.972;6.482;2023-07-20T03:03:29;2.45;;;1.30;;
57217;SDS011;43078;52.972;6.482;2023-07-20T03:05:55;2.92;;;1.48;;
57217;SDS011;43078;52.972;6.482;2023-07-20T03:08:24;2.90;;;1.30;;
57217;SDS011;43078;52.972;6.482;2023-07-20T03:10:49;3.85;;;1.30;;
57217;SDS011;43078;52.972;6.482;2023-07-20T03:13:15;2.80;;;1.30;;
57217;SDS011;43078;52.972;6.482;2023-07-20T03:15:41;2.67;;;1.20;;
57217;SDS011;43078;52.972;6.482;2023-07-20T03:18:06;3.30;;;1.40;;
57217;SDS011;43078;52.972;6.482;2023-07-20T03:20:32;2.80;;;1.25;;
57217;SDS011;43078;52.972;6.482;2023-07-20T03:23:00;2.40;;;1.20;;
57217;SDS011;43078;52.972;6.482;2023-07-20T03:25:25;3.30;;;1.50;;
57217;SDS011;43078;52.972;6.482;2023-07-20T03:27:51;1.98;;;1.10;;
57217;SDS011;43078;52.972;6.482;2023-07-20T03:30:16;2.83;;;1.20;;
57217;SDS011;43078;52.972;6.482;2023-07-20T03:32:42;3.20;;;1.30;;
57217;SDS011;43078;52.972;6.482;2023-07-20T03:35:08;2.75;;;1.20;;
57217;SDS011;43078;52.972;6.482;2023-07-20T03:37:33;2.47;;;1.20;;
57217;SDS011;43078;52.972;6.482;2023-07-20T03:40:01;4.78;;;1.30;;
57217;SDS011;43078;52.972;6.482;2023-07-20T03:42:28;2.95;;;1.20;;
57217;SDS011;43078;52.972;6.482;2023-07-20T03:44:53;3.35;;;1.20;;
57217;SDS011;43078;52.972;6.482;2023-07-20T03:47:19;2.70;;;1.38;;
57217;SDS011;43078;52.972;6.482;2023-07-20T03:49:44;2.63;;;1.20;;
57217;SDS011;43078;52.972;6.482;2023-07-20T03:52:10;2.63;;;1.23;;
57217;SDS011;43078;52.972;6.482;2023-07-20T03:54:36;4.28;;;1.40;;
57217;SDS011;43078;52.972;6.482;2023-07-20T03:57:01;3.10;;;1.33;;
57217;SDS011;43078;52.972;6.482;2023-07-20T03:59:27;3.40;;;1.30;;
57217;SDS011;43078;52.972;6.482;2023-07-20T04:01:53;3.05;;;1.27;;
57217;SDS011;43078;52.972;6.482;2023-07-20T04:04:18;2.88;;;1.20;;
57217;SDS011;43078;52.972;6.482;2023-07-20T04:06:44;4.25;;;1.35;;
57217;SDS011;43078;52.972;6.482;2023-07-20T04:09:11;2.70;;;1.10;;
57217;SDS011;43078;52.972;6.482;2023-07-20T04:11:36;2.03;;;1.08;;
57217;SDS011;43078;52.972;6.482;2023-07-20T04:14:02;2.80;;;1.20;;
57217;SDS011;43078;52.972;6.482;2023-07-20T04:16:28;2.75;;;1.08;;
57217;SDS011;43078;52.972;6.482;2023-07-20T04:18:56;2.03;;;1.08;;
57217;SDS011;43078;52.972;6.482;2023-07-20T04:21:22;2.30;;;1.10;;
57217;SDS011;43078;52.972;6.482;2023-07-20T04:23:50;2.38;;;1.10;;
57217;SDS011;43078;52.972;6.482;2023-07-20T04:26:16;2.63;;;1.20;;
57217;SDS011;43078;52.972;6.482;2023-07-20T04:28:42;2.58;;;1.20;;
57217;SDS011;43078;52.972;6.482;2023-07-20T04:31:11;1.70;;;1.08;;
57217;SDS011;43078;52.972;6.482;2023-07-20T04:33:38;2.30;;;1.02;;
57217;SDS011;43078;52.972;6.482;2023-07-20T04:36:04;2.22;;;1.17;;
57217;SDS011;43078;52.972;6.482;2023-07-20T04:38:29;2.25;;;1.10;;
57217;SDS011;43078;52.972;6.482;2023-07-20T04:40:55;3.50;;;1.08;;
57217;SDS011;43078;52.972;6.482;2023-07-20T04:43:21;3.35;;;1.30;;
57217;SDS011;43078;52.972;6.482;2023-07-20T04:45:46;1.70;;;1.10;;
57217;SDS011;43078;52.972;6.482;2023-07-20T04:48:13;2.10;;;1.10;;
57217;SDS011;43078;52.972;6.482;2023-07-20T04:50:40;3.13;;;0.93;;
57217;SDS011;43078;52.972;6.482;2023-07-20T04:53:08;2.33;;;1.10;;
57217;SDS011;43078;52.972;6.482;2023-07-20T04:55:35;1.98;;;0.93;;
57217;SDS011;43078;52.972;6.482;2023-07-20T04:58:02;2.25;;;1.20;;
57217;SDS011;43078;52.972;6.482;2023-07-20T05:00:31;1.90;;;1.02;;
57217;SDS011;43078;52.972;6.482;2023-07-20T05:02:57;2.25;;;1.10;;
57217;SDS011;43078;52.972;6.482;2023-07-20T05:05:23;2.70;;;1.20;;
57217;SDS011;43078;52.972;6.482;2023-07-20T05:07:49;1.52;;;0.98;;
57217;SDS011;43078;52.972;6.482;2023-07-20T05:10:14;1.63;;;0.93;;
57217;SDS011;43078;52.972;6.482;2023-07-20T05:12:40;2.50;;;1.20;;
57217;SDS011;43078;52.972;6.482;2023-07-20T05:15:06;3.15;;;1.10;;
57217;SDS011;43078;52.972;6.482;2023-07-20T05:17:31;2.50;;;1.10;;
57217;SDS011;43078;52.972;6.482;2023-07-20T05:19:57;3.60;;;1.35;;
57217;SDS011;43078;52.972;6.482;2023-07-20T05:22:23;2.92;;;1.00;;
57217;SDS011;43078;52.972;6.482;2023-07-20T05:24:49;3.80;;;1.30;;
57217;SDS011;43078;52.972;6.482;2023-07-20T05:27:15;2.05;;;0.90;;
57217;SDS011;43078;52.972;6.482;2023-07-20T05:29:45;1.90;;;1.00;;
57217;SDS011;43078;52.972;6.482;2023-07-20T05:32:11;4.40;;;1.38;;
57217;SDS011;43078;52.972;6.482;2023-07-20T05:34:37;1.85;;;0.90;;
57217;SDS011;43078;52.972;6.482;2023-07-20T05:37:02;2.58;;;1.10;;
57217;SDS011;43078;52.972;6.482;2023-07-20T05:39:28;2.55;;;1.30;;
57217;SDS011;43078;52.972;6.482;2023-07-20T05:41:54;3.45;;;1.33;;
57217;SDS011;43078;52.972;6.482;2023-07-20T05:44:22;3.42;;;0.98;;
57217;SDS011;43078;52.972;6.482;2023-07-20T05:46:48;1.98;;;1.20;;
57217;SDS011;43078;52.972;6.482;2023-07-20T05:49:14;2.20;;;1.10;;
57217;SDS011;43078;52.972;6.482;2023-07-20T05:51:39;1.65;;;0.90;;
57217;SDS011;43078;52.972;6.482;2023-07-20T05:54:05;2.92;;;1.00;;
57217;SDS011;43078;52.972;6.482;2023-07-20T05:56:31;2.65;;;1.00;;
57217;SDS011;43078;52.972;6.482;2023-07-20T05:58:57;2.30;;;0.95;;
57217;SDS011;43078;52.972;6.482;2023-07-20T06:01:22;2.25;;;0.82;;
57217;SDS011;43078;52.972;6.482;2023-07-20T06:03:48;1.75;;;0.93;;
57217;SDS011;43078;52.972;6.482;2023-07-20T06:06:13;2.78;;;0.95;;
57217;SDS011;43078;52.972;6.482;2023-07-20T06:08:40;1.55;;;0.88;;
57217;SDS011;43078;52.972;6.482;2023-07-20T06:11:05;2.38;;;0.80;;
57217;SDS011;43078;52.972;6.482;2023-07-20T06:13:31;2.58;;;0.90;;
57217;SDS011;43078;52.972;6.482;2023-07-20T06:15:56;3.03;;;1.00;;
57217;SDS011;43078;52.972;6.482;2023-07-20T06:18:22;5.03;;;1.25;;
57217;SDS011;43078;52.972;6.482;2023-07-20T06:20:51;4.60;;;1.40;;
57217;SDS011;43078;52.972;6.482;2023-07-20T06:23:18;1.52;;;0.85;;
57217;SDS011;43078;52.972;6.482;2023-07-20T06:25:44;4.05;;;1.30;;
57217;SDS011;43078;52.972;6.482;2023-07-20T06:28:10;6.05;;;1.45;;
57217;SDS011;43078;52.972;6.482;2023-07-20T06:30:36;1.65;;;0.90;;
57217;SDS011;43078;52.972;6.482;2023-07-20T06:33:02;1.83;;;0.88;;
57217;SDS011;43078;52.972;6.482;2023-07-20T06:35:28;3.08;;;1.00;;
57217;SDS011;43078;52.972;6.482;2023-07-20T06:37:53;2.90;;;0.90;;
57217;SDS011;43078;52.972;6.482;2023-07-20T06:40:19;3.10;;;0.82;;
57217;SDS011;43078;52.972;6.482;2023-07-20T06:42:45;4.60;;;1.27;;
57217;SDS011;43078;52.972;6.482;2023-07-20T06:45:11;1.70;;;0.90;;
57217;SDS011;43078;52.972;6.482;2023-07-20T06:47:40;2.55;;;0.80;;
57217;SDS011;43078;52.972;6.482;2023-07-20T06:50:06;1.98;;;0.90;;
57217;SDS011;43078;52.972;6.482;2023-07-20T06:52:33;3.78;;;1.05;;
57217;SDS011;43078;52.972;6.482;2023-07-20T06:54:58;2.58;;;1.00;;
57217;SDS011;43078;52.972;6.482;2023-07-20T06:57:24;2.33;;;1.08;;
57217;SDS011;43078;52.972;6.482;2023-07-20T06:59:50;2.55;;;0.73;;
57217;SDS011;43078;52.972;6.482;2023-07-20T07:02:16;3.28;;;1.08;;
57217;SDS011;43078;52.972;6.482;2023-07-20T07:04:42;6.28;;;1.20;;
57217;SDS011;43078;52.972;6.482;2023-07-20T07:07:08;3.10;;;0.90;;
57217;SDS011;43078;52.972;6.482;2023-07-20T07:09:35;2.95;;;0.90;;
57217;SDS011;43078;52.972;6.482;2023-07-20T07:12:00;2.10;;;0.68;;
57217;SDS011;43078;52.972;6.482;2023-07-20T07:14:26;2.65;;;0.77;;
57217;SDS011;43078;52.972;6.482;2023-07-20T07:16:52;3.75;;;1.20;;
57217;SDS011;43078;52.972;6.482;2023-07-20T07:19:17;2.08;;;0.85;;
57217;SDS011;43078;52.972;6.482;2023-07-20T07:21:43;3.00;;;0.80;;
57217;SDS011;43078;52.972;6.482;2023-07-20T07:24:09;2.95;;;0.70;;
57217;SDS011;43078;52.972;6.482;2023-07-20T07:26:35;4.03;;;0.90;;
57217;SDS011;43078;52.972;6.482;2023-07-20T07:29:04;3.25;;;0.80;;
57217;SDS011;43078;52.972;6.482;2023-07-20T07:31:29;5.18;;;1.00;;
57217;SDS011;43078;52.972;6.482;2023-07-20T07:33:55;4.50;;;0.90;;
57217;SDS011;43078;52.972;6.482;2023-07-20T07:36:22;3.90;;;0.98;;
57217;SDS011;43078;52.972;6.482;2023-07-20T07:38:49;2.60;;;0.77;;
57217;SDS011;43078;52.972;6.482;2023-07-20T07:41:15;2.28;;;0.82;;
57217;SDS011;43078;52.972;6.482;2023-07-20T07:43:40;4.57;;;0.98;;
57217;SDS011;43078;52.972;6.482;2023-07-20T07:46:06;2.30;;;0.70;;
57217;SDS011;43078;52.972;6.482;2023-07-20T07:48:32;2.50;;;0.98;;
57217;SDS011;43078;52.972;6.482;2023-07-20T07:50:57;2.83;;;0.63;;
57217;SDS011;43078;52.972;6.482;2023-07-20T07:53:23;2.58;;;0.98;;
57217;SDS011;43078;52.972;6.482;2023-07-20T07:55:51;2.33;;;0.75;;
57217;SDS011;43078;52.972;6.482;2023-07-20T07:58:17;6.20;;;0.98;;
57217;SDS011;43078;52.972;6.482;2023-07-20T08:00:42;5.07;;;1.30;;
57217;SDS011;43078;52.972;6.482;2023-07-20T08:03:09;4.43;;;0.88;;
57217;SDS011;43078;52.972;6.482;2023-07-20T08:05:35;2.63;;;0.75;;
57217;SDS011;43078;52.972;6.482;2023-07-20T08:08:03;5.75;;;1.00;;
57217;SDS011;43078;52.972;6.482;2023-07-20T08:10:29;1.67;;;0.70;;
57217;SDS011;43078;52.972;6.482;2023-07-20T08:12:55;2.58;;;0.82;;
57217;SDS011;43078;52.972;6.482;2023-07-20T08:15:21;2.20;;;0.77;;
57217;SDS011;43078;52.972;6.482;2023-07-20T08:17:47;3.80;;;0.95;;
57217;SDS011;43078;52.972;6.482;2023-07-20T08:20:13;2.90;;;0.90;;
57217;SDS011;43078;52.972;6.482;2023-07-20T08:22:41;2.75;;;0.98;;
57217;SDS011;43078;52.972;6.482;2023-07-20T08:25:07;3.17;;;0.90;;
57217;SDS011;43078;52.972;6.482;2023-07-20T08:27:33;4.25;;;0.90;;
57217;SDS011;43078;52.972;6.482;2023-07-20T08:29:59;2.90;;;0.90;;
57217;SDS011;43078;52.972;6.482;2023-07-20T08:32:25;2.88;;;0.90;;
57217;SDS011;43078;52.972;6.482;2023-07-20T08:34:51;1.92;;;0.70;;
57217;SDS011;43078;52.972;6.482;2023-07-20T08:37:17;3.92;;;0.90;;
57217;SDS011;43078;52.972;6.482;2023-07-20T08:39:43;4.65;;;1.13;;
57217;SDS011;43078;52.972;6.482;2023-07-20T08:42:09;3.28;;;0.80;;
57217;SDS011;43078;52.972;6.482;2023-07-20T08:44:36;5.40;;;1.02;;
57217;SDS011;43078;52.972;6.482;2023-07-20T08:47:03;3.60;;;1.02;;
57217;SDS011;43078;52.972;6.482;2023-07-20T08:49:34;3.03;;;1.02;;
57217;SDS011;43078;52.972;6.482;2023-07-20T08:52:00;4.68;;;1.10;;
57217;SDS011;43078;52.972;6.482;2023-07-20T08:54:32;3.15;;;1.13;;
57217;SDS011;43078;52.972;6.482;2023-07-20T08:56:59;3.95;;;1.15;;
57217;SDS011;43078;52.972;6.482;2023-07-20T08:59:28;2.55;;;1.08;;
57217;SDS011;43078;52.972;6.482;2023-07-20T09:01:56;4.05;;;1.15;;
57217;SDS011;43078;52.972;6.482;2023-07-20T09:04:23;2.60;;;0.80;;
57217;SDS011;43078;52.972;6.482;2023-07-20T09:06:49;5.47;;;1.40;;
57217;SDS011;43078;52.972;6.482;2023-07-20T09:09:15;5.40;;;1.42;;
57217;SDS011;43078;52.972;6.482;2023-07-20T09:11:41;5.90;;;1.27;;
57217;SDS011;43078;52.972;6.482;2023-07-20T09:14:08;4.95;;;1.35;;
57217;SDS011;43078;52.972;6.482;2023-07-20T09:16:55;6.15;;;1.52;;
57217;SDS011;43078;52.972;6.482;2023-07-20T09:19:21;5.57;;;1.33;;
57217;SDS011;43078;52.972;6.482;2023-07-20T09:21:50;2.92;;;1.23;;
57217;SDS011;43078;52.972;6.482;2023-07-20T09:24:17;2.85;;;1.17;;
57217;SDS011;43078;52.972;6.482;2023-07-20T09:26:44;6.63;;;1.13;;
57217;SDS011;43078;52.972;6.482;2023-07-20T09:29:13;3.88;;;1.25;;
57217;SDS011;43078;52.972;6.482;2023-07-20T09:31:39;3.60;;;1.10;;
57217;SDS011;43078;52.972;6.482;2023-07-20T09:34:05;5.97;;;1.42;;
57217;SDS011;43078;52.972;6.482;2023-07-20T09:36:35;5.90;;;1.40;;
57217;SDS011;43078;52.972;6.482;2023-07-20T09:39:02;4.32;;;1.10;;
57217;SDS011;43078;52.972;6.482;2023-07-20T09:41:29;2.88;;;1.10;;
57217;SDS011;43078;52.972;6.482;2023-07-20T09:43:54;3.65;;;1.27;;
57217;SDS011;43078;52.972;6.482;2023-07-20T09:46:20;4.75;;;1.40;;
57217;SDS011;43078;52.972;6.482;2023-07-20T09:48:52;4.97;;;1.30;;
57217;SDS011;43078;52.972;6.482;2023-07-20T09:51:20;4.13;;;1.10;;
57217;SDS011;43078;52.972;6.482;2023-07-20T09:53:48;6.65;;;1.45;;
57217;SDS011;43078;52.972;6.482;2023-07-20T09:56:14;6.00;;;1.40;;
57217;SDS011;43078;52.972;6.482;2023-07-20T09:58:41;3.35;;;1.30;;
57217;SDS011;43078;52.972;6.482;2023-07-20T10:01:08;3.67;;;0.98;;
57217;SDS011;43078;52.972;6.482;2023-07-20T10:03:36;4.53;;;1.33;;
57217;SDS011;43078;52.972;6.482;2023-07-20T10:06:05;3.25;;;1.15;;
57217;SDS011;43078;52.972;6.482;2023-07-20T10:08:40;3.78;;;1.20;;
57217;SDS011;43078;52.972;6.482;2023-07-20T10:11:07;2.88;;;1.27;;
57217;SDS011;43078;52.972;6.482;2023-07-20T10:13:36;5.38;;;1.58;;
57217;SDS011;43078;52.972;6.482;2023-07-20T10:16:08;4.40;;;1.23;;
57217;SDS011;43078;52.972;6.482;2023-07-20T10:18:46;3.63;;;1.33;;
57217;SDS011;43078;52.972;6.482;2023-07-20T10:21:19;4.68;;;1.50;;
57217;SDS011;43078;52.972;6.482;2023-07-20T10:23:48;5.63;;;1.60;;
57217;SDS011;43078;52.972;6.482;2023-07-20T10:26:15;4.32;;;1.40;;
57217;SDS011;43078;52.972;6.482;2023-07-20T10:28:40;8.43;;;1.58;;
57217;SDS011;43078;52.972;6.482;2023-07-20T10:31:10;2.90;;;1.30;;
57217;SDS011;43078;52.972;6.482;2023-07-20T10:33:38;5.35;;;1.60;;
57217;SDS011;43078;52.972;6.482;2023-07-20T10:36:04;4.03;;;1.40;;
57217;SDS011;43078;52.972;6.482;2023-07-20T10:41:18;3.65;;;1.30;;
57217;SDS011;43078;52.972;6.482;2023-07-20T10:44:06;5.88;;;1.55;;
57217;SDS011;43078;52.972;6.482;2023-07-20T10:46:42;4.88;;;1.70;;
57217;SDS011;43078;52.972;6.482;2023-07-20T10:49:10;5.18;;;1.50;;
57217;SDS011;43078;52.972;6.482;2023-07-20T10:51:47;4.93;;;1.50;;
57217;SDS011;43078;52.972;6.482;2023-07-20T10:56:48;5.60;;;1.40;;
57217;SDS011;43078;52.972;6.482;2023-07-20T10:59:18;4.97;;;1.65;;
57217;SDS011;43078;52.972;6.482;2023-07-20T11:02:00;3.00;;;1.20;;
57217;SDS011;43078;52.972;6.482;2023-07-20T11:04:52;6.53;;;1.50;;
57217;SDS011;43078;52.972;6.482;2023-07-20T11:07:36;3.08;;;1.27;;
57217;SDS011;43078;52.972;6.482;2023-07-20T11:10:14;4.32;;;1.50;;
57217;SDS011;43078;52.972;6.482;2023-07-20T11:12:54;3.15;;;1.48;;
57217;SDS011;43078;52.972;6.482;2023-07-20T11:18:21;5.57;;;1.20;;
57217;SDS011;43078;52.972;6.482;2023-07-20T11:20:51;4.07;;;1.55;;
57217;SDS011;43078;52.972;6.482;2023-07-20T11:23:17;4.85;;;1.38;;
57217;SDS011;43078;52.972;6.482;2023-07-20T11:25:45;5.70;;;1.30;;
57217;SDS011;43078;52.972;6.482;2023-07-20T11:28:11;3.78;;;1.45;;
57217;SDS011;43078;52.972;6.482;2023-07-20T11:30:37;4.25;;;1.63;;
57217;SDS011;43078;52.972;6.482;2023-07-20T11:33:03;3.15;;;1.30;;
57217;SDS011;43078;52.972;6.482;2023-07-20T11:35:30;4.85;;;1.40;;
57217;SDS011;43078;52.972;6.482;2023-07-20T11:38:00;3.78;;;1.50;;
57217;SDS011;43078;52.972;6.482;2023-07-20T11:40:26;3.58;;;1.10;;
57217;SDS011;43078;52.972;6.482;2023-07-20T11:42:51;4.22;;;1.30;;
57217;SDS011;43078;52.972;6.482;2023-07-20T11:45:19;3.70;;;1.50;;
57217;SDS011;43078;52.972;6.482;2023-07-20T11:47:45;3.67;;;1.35;;
57217;SDS011;43078;52.972;6.482;2023-07-20T11:50:10;4.35;;;1.60;;
57217;SDS011;43078;52.972;6.482;2023-07-20T11:52:38;4.28;;;1.38;;
57217;SDS011;43078;52.972;6.482;2023-07-20T11:55:05;6.05;;;1.65;;
57217;SDS011;43078;52.972;6.482;2023-07-20T11:57:32;3.08;;;1.30;;
57217;SDS011;43078;52.972;6.482;2023-07-20T11:59:58;3.33;;;1.40;;
57217;SDS011;43078;52.972;6.482;2023-07-20T12:02:27;6.40;;;1.60;;
57217;SDS011;43078;52.972;6.482;2023-07-20T12:04:56;3.45;;;1.40;;
57217;SDS011;43078;52.972;6.482;2023-07-20T12:07:26;3.20;;;1.33;;
57217;SDS011;43078;52.972;6.482;2023-07-20T12:10:02;3.88;;;1.42;;
57217;SDS011;43078;52.972;6.482;2023-07-20T12:12:51;4.30;;;1.35;;
57217;SDS011;43078;52.972;6.482;2023-07-20T12:15:20;3.35;;;1.33;;
57217;SDS011;43078;52.972;6.482;2023-07-20T12:17:51;5.70;;;1.50;;
57217;SDS011;43078;52.972;6.482;2023-07-20T12:20:24;4.05;;;1.48;;
57217;SDS011;43078;52.972;6.482;2023-07-20T12:23:00;4.47;;;1.30;;
57217;SDS011;43078;52.972;6.482;2023-07-20T12:28:11;3.38;;;1.38;;
57217;SDS011;43078;52.972;6.482;2023-07-20T12:30:43;3.00;;;1.25;;
57217;SDS011;43078;52.972;6.482;2023-07-20T12:33:09;4.10;;;1.33;;
57217;SDS011;43078;52.972;6.482;2023-07-20T12:35:36;4.05;;;1.27;;
57217;SDS011;43078;52.972;6.482;2023-07-20T12:38:02;2.95;;;1.30;;
57217;SDS011;43078;52.972;6.482;2023-07-20T12:40:28;4.35;;;1.38;;
57217;SDS011;43078;52.972;6.482;2023-07-20T12:42:53;4.40;;;1.67;;
57217;SDS011;43078;52.972;6.482;2023-07-20T12:45:19;4.50;;;1.40;;
57217;SDS011;43078;52.972;6.482;2023-07-20T12:47:45;4.72;;;1.42;;
57217;SDS011;43078;52.972;6.482;2023-07-20T12:50:11;5.15;;;1.40;;
57217;SDS011;43078;52.972;6.482;2023-07-20T12:52:37;3.55;;;1.20;;
57217;SDS011;43078;52.972;6.482;2023-07-20T12:55:05;4.43;;;1.40;;
57217;SDS011;43078;52.972;6.482;2023-07-20T12:57:33;2.88;;;1.30;;
57217;SDS011;43078;52.972;6.482;2023-07-20T12:59:59;2.90;;;1.00;;
57217;SDS011;43078;52.972;6.482;2023-07-20T13:02:24;4.25;;;1.20;;
57217;SDS011;43078;52.972;6.482;2023-07-20T13:04:50;3.47;;;1.25;;
57217;SDS011;43078;52.972;6.482;2023-07-20T13:07:16;4.97;;;1.60;;
57217;SDS011;43078;52.972;6.482;2023-07-20T13:09:41;4.18;;;1.55;;
57217;SDS011;43078;52.972;6.482;2023-07-20T13:12:07;4.07;;;1.38;;
57217;SDS011;43078;52.972;6.482;2023-07-20T13:14:33;4.50;;;1.30;;
57217;SDS011;43078;52.972;6.482;2023-07-20T13:16:59;2.95;;;1.40;;
57217;SDS011;43078;52.972;6.482;2023-07-20T13:19:24;3.53;;;1.35;;
57217;SDS011;43078;52.972;6.482;2023-07-20T13:21:50;4.18;;;1.33;;
57217;SDS011;43078;52.972;6.482;2023-07-20T13:24:16;3.63;;;1.30;;
57217;SDS011;43078;52.972;6.482;2023-07-20T13:26:42;3.25;;;1.38;;
57217;SDS011;43078;52.972;6.482;2023-07-20T13:29:07;7.07;;;1.50;;
57217;SDS011;43078;52.972;6.482;2023-07-20T13:31:33;3.67;;;1.35;;
57217;SDS011;43078;52.972;6.482;2023-07-20T13:33:59;3.45;;;1.20;;
57217;SDS011;43078;52.972;6.482;2023-07-20T13:36:24;4.10;;;1.10;;
57217;SDS011;43078;52.972;6.482;2023-07-20T13:38:50;3.10;;;1.20;;
57217;SDS011;43078;52.972;6.482;2023-07-20T13:41:19;6.05;;;1.40;;
57217;SDS011;43078;52.972;6.482;2023-07-20T13:43:47;5.25;;;1.30;;
57217;SDS011;43078;52.972;6.482;2023-07-20T13:46:13;4.88;;;1.40;;
57217;SDS011;43078;52.972;6.482;2023-07-20T13:48:38;5.72;;;1.08;;
57217;SDS011;43078;52.972;6.482;2023-07-20T13:51:04;3.15;;;1.27;;
57217;SDS011;43078;52.972;6.482;2023-07-20T13:53:32;5.20;;;1.30;;
57217;SDS011;43078;52.972;6.482;2023-07-20T13:55:58;3.92;;;1.20;;
57217;SDS011;43078;52.972;6.482;2023-07-20T13:58:24;3.33;;;1.30;;
57217;SDS011;43078;52.972;6.482;2023-07-20T14:00:50;3.78;;;1.15;;
57217;SDS011;43078;52.972;6.482;2023-07-20T14:03:16;3.70;;;1.10;;
57217;SDS011;43078;52.972;6.482;2023-07-20T14:05:41;4.47;;;1.33;;
57217;SDS011;43078;52.972;6.482;2023-07-20T14:08:08;2.38;;;0.95;;
57217;SDS011;43078;52.972;6.482;2023-07-20T14:10:34;3.88;;;1.20;;
57217;SDS011;43078;52.972;6.482;2023-07-20T14:12:59;7.38;;;1.30;;
57217;SDS011;43078;52.972;6.482;2023-07-20T14:15:25;3.08;;;1.10;;
57217;SDS011;43078;52.972;6.482;2023-07-20T14:17:51;3.97;;;1.20;;
57217;SDS011;43078;52.972;6.482;2023-07-20T14:20:16;5.45;;;1.35;;
57217;SDS011;43078;52.972;6.482;2023-07-20T14:22:42;3.90;;;1.20;;
57217;SDS011;43078;52.972;6.482;2023-07-20T14:25:09;3.53;;;1.30;;
57217;SDS011;43078;52.972;6.482;2023-07-20T14:27:35;3.65;;;1.48;;
57217;SDS011;43078;52.972;6.482;2023-07-20T14:30:04;5.20;;;1.40;;
57217;SDS011;43078;52.972;6.482;2023-07-20T14:32:34;2.75;;;1.20;;
57217;SDS011;43078;52.972;6.482;2023-07-20T14:35:00;4.10;;;1.40;;
57217;SDS011;43078;52.972;6.482;2023-07-20T14:37:26;2.55;;;1.20;;
57217;SDS011;43078;52.972;6.482;2023-07-20T14:39:51;3.50;;;1.33;;
57217;SDS011;43078;52.972;6.482;2023-07-20T14:42:17;3.50;;;1.10;;
57217;SDS011;43078;52.972;6.482;2023-07-20T14:44:43;3.60;;;1.50;;
57217;SDS011;43078;52.972;6.482;2023-07-20T14:47:09;4.28;;;1.50;;
57217;SDS011;43078;52.972;6.482;2023-07-20T14:49:35;3.45;;;1.00;;
57217;SDS011;43078;52.972;6.482;2023-07-20T14:52:00;4.85;;;1.50;;
57217;SDS011;43078;52.972;6.482;2023-07-20T14:54:27;2.17;;;1.05;;
57217;SDS011;43078;52.972;6.482;2023-07-20T14:56:52;3.08;;;1.10;;
57217;SDS011;43078;52.972;6.482;2023-07-20T14:59:19;3.95;;;1.40;;
57217;SDS011;43078;52.972;6.482;2023-07-20T15:01:45;3.67;;;1.40;;
57217;SDS011;43078;52.972;6.482;2023-07-20T15:04:11;4.25;;;1.48;;
57217;SDS011;43078;52.972;6.482;2023-07-20T15:06:37;3.97;;;1.38;;
57217;SDS011;43078;52.972;6.482;2023-07-20T15:09:03;3.58;;;1.35;;
57217;SDS011;43078;52.972;6.482;2023-07-20T15:11:29;3.45;;;1.20;;